Latest Weather Observations for Walpole North

IDW60801

Issued at 3:02 pm WST Friday 31 July 2015 (issued every 30 minutes, with the page automatically refreshed every 10 minutes)

About weather observations | Map of weather stations | Latest weather observations for WA | Other Formats
Station Details ID: 009998 Name: NORTH WALPOLE Lat: -34.95 Lon: 116.72 Height: 73.0 m
Data from the previous 72 hours. | See also: Recent months at Walpole North
Date/Time
WST
Temp
°C
App
Temp
°C
Dew
Point
Rel
Hum
%
Delta-T
°C
Wind Press
QNH
hPa
Press
MSL
hPa
Rain
since 9 am
mm
Dir
 
Spd
km/h
Gust
km/h
Spd
kts
Gust
kts
31/03:00pm 12.3 7.4 8.4 77 1.9 SE 24 39 13 21 1016.7 1016.7 1.2
31/02:30pm 12.1 7.7 8.9 81 1.6 SE 22 33 12 18 1016.1 1016.1 1.2
31/02:00pm 11.9 8.2 9.6 86 1.2 ESE 19 28 10 15 1015.7 1015.7 1.2
31/01:30pm 11.5 7.6 10.7 95 0.4 ESE 22 33 12 18 1015.4 1015.4 1.2
31/01:00pm 11.3 6.7 11.1 99 0.1 SE 26 41 14 22 1015.8 1015.8 1.2
31/12:30pm 11.6 7.1 11.4 99 0.1 ESE 26 35 14 19 1015.6 1015.6 1.2
31/12:00pm 11.6 7.2 11.6 100 0.0 SE 26 39 14 21 1015.4 1015.4 1.2
31/11:30am 11.7 6.9 11.7 100 0.0 SE 28 39 15 21 1015.7 1015.7 1.2
31/11:00am 11.9 9.3 11.9 100 0.0 ESE 17 30 9 16 1016.2 1016.2 1.0
31/10:30am 11.8 8.8 11.8 100 0.0 ESE 19 28 10 15 1016.1 1016.1 0.8
31/10:00am 11.8 7.4 11.8 100 0.0 ESE 26 39 14 21 1015.5 1015.5 0.8
31/09:30am 11.9 6.8 11.9 100 0.0 ESE 30 43 16 23 1015.2 1015.2 0.4
31/09:00am 11.9 7.6 11.9 100 0.0 SE 26 43 14 23 1015.5 1015.5 14.2
31/08:30am 12.1 7.4 12.1 100 0.0 SE 28 41 15 22 1015.2 1015.2 14.0
31/08:06am 11.9 7.2 11.9 100 0.0 SE 28 46 15 25 1014.9 1014.9 13.6
31/08:00am 12.0 7.7 12.0 100 0.0 SE 26 46 14 25 1014.8 1014.8 13.6
31/07:30am 12.2 7.9 12.2 100 0.0 SE 26 39 14 21 1014.4 1014.4 13.2
31/07:16am 12.3 7.3 12.3 100 0.0 SE 30 48 16 26 1014.0 1014.0 13.0
31/07:00am 12.5 7.2 12.5 100 0.0 SE 32 48 17 26 1013.5 1013.5 12.8
31/06:30am 13.0 8.6 13.0 100 0.0 SE 28 46 15 25 1013.3 1013.3 12.4
31/06:00am 13.4 9.5 13.4 100 0.0 SE 26 41 14 22 1013.4 1013.4 10.4
31/05:30am 13.6 9.0 13.6 100 0.0 SE 30 43 16 23 1012.5 1012.5 10.2
31/05:00am 14.2 12.3 14.2 100 0.0 SE 17 39 9 21 1012.4 1012.4 9.6
31/04:30am 13.4 14.5 13.4 100 0.0 CALM 0 0 0 0 1011.9 1011.9 9.0
31/04:00am 13.3 14.3 13.3 100 0.0 CALM 0 0 0 0 1012.0 1012.0 8.6
31/03:30am 13.4 14.5 13.4 100 0.0 CALM 0 0 0 0 1012.2 1012.2 8.0
31/03:00am 13.4 14.5 13.4 100 0.0 CALM 0 0 0 0 1012.1 1012.1 7.8
31/02:30am 13.2 14.2 13.2 100 0.0 CALM 0 0 0 0 1012.2 1012.2 7.6
31/02:00am 13.3 14.3 13.3 100 0.0 CALM 0 0 0 0 1012.9 1012.9 7.6
31/01:30am 13.2 14.2 13.2 100 0.0 CALM 0 0 0 0 1012.9 1012.9 7.4
31/01:00am 13.2 14.2 13.2 100 0.0 CALM 0 0 0 0 1013.2 1013.2 7.4
31/12:30am 13.3 14.3 13.3 100 0.0 CALM 0 0 0 0 1013.5 1013.5 6.2
31/12:00am 13.4 13.7 13.4 100 0.0 E 4 7 2 4 1013.6 1013.6 5.0
 
Date/Time
WST
Temp
°C
App
Temp
°C
Dew
Point
Rel
Hum
%
Delta-T
°C
Wind Press
QNH
hPa
Press
MSL
hPa
Rain
since 9 am
mm
Dir
 
Spd
km/h
Gust
km/h
Spd
kts
Gust
kts
30/11:30pm 13.3 13.0 13.3 100 0.0 SE 7 11 4 6 1014.1 1014.1 5.0
30/11:00pm 13.3 13.0 13.3 100 0.0 SE 7 11 4 6 1014.6 1014.6 4.8
30/10:30pm 13.4 13.1 13.4 100 0.0 E 7 11 4 6 1014.9 1014.9 4.8
30/10:00pm 13.3 13.1 13.1 99 0.1 SE 6 9 3 5 1014.9 1014.9 4.8
30/09:30pm 13.6 13.3 13.4 99 0.1 SE 7 11 4 6 1015.9 1015.9 4.4
30/09:00pm 13.7 14.4 13.5 99 0.1 SSE 2 7 1 4 1016.3 1016.3 3.4
30/08:30pm 13.7 13.1 13.5 99 0.1 E 9 13 5 7 1016.1 1016.1 2.4
30/08:00pm 13.7 13.1 13.5 99 0.1 ENE 9 15 5 8 1015.9 1015.9 1.2
30/07:30pm 13.8 12.8 13.5 98 0.2 ENE 11 17 6 9 1016.2 1016.2 1.0
30/07:00pm 14.0 12.9 13.2 95 0.4 E 11 19 6 10 1016.5 1016.5 0.8
30/06:30pm 14.2 13.0 12.9 92 0.7 E 11 15 6 8 1016.9 1017.0 0.4
30/06:00pm 14.4 13.9 12.8 90 0.9 ESE 7 11 4 6 1017.0 1017.1 0.0
30/05:30pm 14.5 14.0 12.7 89 1.0 SE 7 11 4 6 1017.0 1017.1 0.0
30/05:00pm 14.6 13.8 12.8 89 1.0 ESE 9 13 5 7 1016.9 1017.0 0.0
30/04:30pm 14.8 13.6 12.8 88 1.1 E 11 17 6 9 1017.5 1017.6 0.0
30/04:00pm 15.0 14.2 12.9 87 1.2 E 9 15 5 8 1017.6 1017.7 0.0
30/03:30pm 15.2 14.0 12.7 85 1.4 ENE 11 19 6 10 1017.8 1017.9 0.0
30/03:00pm 15.7 14.6 13.0 84 1.5 ENE 11 15 6 8 1017.8 1017.9 0.0
30/02:30pm 15.7 13.9 13.2 85 1.4 ENE 15 24 8 13 1017.9 1018.0 0.0
30/02:00pm 15.0 13.0 12.7 86 1.3 ENE 15 24 8 13 1018.2 1018.3 0.0
30/01:30pm 14.5 12.7 12.2 86 1.3 ENE 13 19 7 10 1019.1 1019.2 0.0
30/01:00pm 14.7 13.3 12.2 85 1.4 NE 11 20 6 11 1020.1 1020.1 0.0
30/12:30pm 14.3 12.3 11.6 84 1.5 NE 13 20 7 11 1020.6 1020.6 0.0
30/12:00pm 14.4 12.1 11.9 85 1.3 ENE 15 22 8 12 1021.2 1021.2 0.0
30/11:30am 14.3 12.8 11.8 85 1.3 ENE 11 19 6 10 1021.4 1021.4 0.0
30/11:00am 14.4 12.2 12.1 86 1.2 E 15 24 8 13 1021.6 1021.6 0.0
30/10:30am 13.6 11.6 11.5 87 1.1 ENE 13 22 7 12 1022.1 1022.1 0.0
30/10:00am 13.4 11.4 11.5 88 1.0 ENE 13 22 7 12 1022.2 1022.2 0.0
30/09:30am 13.4 12.3 12.1 92 0.7 ENE 9 15 5 8 1022.4 1022.4 0.0
30/09:00am 12.5 10.9 11.7 95 0.4 E 11 20 6 11 1022.3 1022.3 1.0
30/08:30am 12.2 11.0 11.6 96 0.3 ESE 9 15 5 8 1022.2 1022.2 1.0
30/08:00am 11.9 9.9 11.6 98 0.2 ENE 13 20 7 11 1022.1 1022.1 1.0
30/07:30am 11.7 10.5 11.5 99 0.1 ENE 9 13 5 7 1022.0 1022.0 1.0
30/07:00am 11.7 10.5 11.5 99 0.1 ENE 9 13 5 7 1021.8 1021.8 1.0
30/06:30am 11.7 10.1 11.5 99 0.1 E 11 15 6 8 1021.2 1021.2 1.0
30/06:00am 11.7 9.3 11.5 99 0.1 ENE 15 26 8 14 1020.8 1020.8 1.0
30/05:30am 11.8 10.2 11.6 99 0.1 E 11 17 6 9 1020.9 1020.9 1.0
30/05:00am 11.9 10.3 11.7 99 0.1 E 11 17 6 9 1020.9 1020.9 1.0
30/04:30am 12.0 10.1 11.8 99 0.1 ESE 13 19 7 10 1020.8 1020.8 1.0
30/04:00am 12.2 9.6 12.0 99 0.1 ESE 17 26 9 14 1020.5 1020.5 1.0
30/03:30am 12.4 10.2 12.1 98 0.2 ESE 15 20 8 11 1020.6 1020.6 0.8
30/03:00am 12.5 10.3 12.0 97 0.3 ESE 15 22 8 12 1020.7 1020.7 0.8
30/02:30am 12.8 10.6 12.0 95 0.4 ESE 15 20 8 11 1020.8 1020.8 0.8
30/02:00am 13.0 10.4 11.9 93 0.6 SE 17 22 9 12 1020.5 1020.5 0.8
30/01:30am 13.6 11.9 12.3 92 0.7 ESE 13 20 7 11 1020.3 1020.3 0.8
30/01:00am 13.8 12.1 12.5 92 0.7 ESE 13 20 7 11 1020.3 1020.3 0.8
30/12:30am 13.9 12.7 12.8 93 0.6 SE 11 17 6 9 1020.2 1020.2 0.8
30/12:00am 13.9 12.3 12.8 93 0.6 SE 13 19 7 10 1020.2 1020.2 0.8
 
Date/Time
WST
Temp
°C
App
Temp
°C
Dew
Point
Rel
Hum
%
Delta-T
°C
Wind Press
QNH
hPa
Press
MSL
hPa
Rain
since 9 am
mm
Dir
 
Spd
km/h
Gust
km/h
Spd
kts
Gust
kts
29/11:30pm 14.0 12.4 12.9 93 0.6 SE 13 19 7 10 1020.1 1020.1 0.8
29/11:00pm 14.4 14.1 13.4 94 0.6 S 7 15 4 8 1020.1 1020.1 0.8
29/10:30pm 14.4 14.4 13.6 95 0.4 S 6 11 3 6 1020.0 1020.0 0.8
29/10:00pm 14.2 14.5 13.4 95 0.4 SSW 4 9 2 5 1019.7 1019.8 0.8
29/09:30pm 14.3 14.1 13.5 95 0.4 SSW 7 11 4 6 1019.7 1019.8 0.8
29/09:00pm 14.4 14.3 13.8 96 0.3 SW 7 11 4 6 1019.3 1019.4 0.8
29/08:30pm 14.5 15.7 13.9 96 0.3 CALM 0 6 0 3 1019.2 1019.3 0.8
29/08:00pm 14.6 14.7 13.8 95 0.4 W 6 11 3 6 1018.9 1019.0 0.8
29/07:30pm 14.7 14.7 13.6 93 0.6 WNW 6 9 3 5 1018.5 1018.6 0.8
29/07:00pm 15.0 14.7 13.4 90 0.9 SW 7 13 4 7 1018.1 1018.2 0.0
29/06:30pm 15.0 13.4 12.9 87 1.2 NW 13 19 7 10 1017.4 1017.5 0.0
29/06:00pm 16.2 13.9 13.1 82 1.7 NW 17 26 9 14 1016.9 1017.0 0.0
29/05:30pm 15.7 14.8 12.5 81 1.8 WNW 9 13 5 7 1016.5 1016.5 0.0
29/05:00pm 16.0 13.5 12.2 78 2.1 WNW 17 20 9 11 1016.4 1016.4 0.0
29/04:30pm 17.5 15.5 12.8 74 2.6 WNW 15 22 8 12 1015.8 1015.8 0.0
29/04:00pm 18.0 15.3 12.9 72 2.9 NW 19 26 10 14 1015.7 1015.7 0.0
29/03:30pm 17.7 15.3 12.8 73 2.7 WNW 17 24 9 13 1015.7 1015.7 0.0
29/03:00pm 17.6 15.4 13.3 76 2.4 NW 17 24 9 13 1015.5 1015.5 0.0
29/02:30pm 17.4 14.5 12.9 75 2.5 NW 20 30 11 16 1015.4 1015.4 0.0
29/02:00pm 17.0 14.7 13.1 78 2.2 NW 17 26 9 14 1015.2 1015.2 0.0
29/01:30pm 16.7 13.8 12.8 78 2.2 NW 20 26 11 14 1015.1 1015.1 0.0
29/01:00pm 16.4 14.4 12.8 79 2.0 NNW 15 20 8 11 1015.2 1015.2 0.0
29/12:30pm 15.9 13.5 12.5 80 1.9 NW 17 26 9 14 1015.4 1015.4 0.0
29/12:00pm 16.1 16.5 12.5 79 2.0 NW 2 11 1 6 1016.0 1016.0 0.0
29/11:30am 15.6 14.7 12.7 83 1.6 NNW 9 15 5 8 1016.3 1016.3 0.0
29/11:00am 14.6 13.1 13.0 90 0.9 NNW 13 19 7 10 1016.7 1016.7 0.0
29/10:30am 14.2 14.6 13.7 97 0.3 N 4 9 2 5 1016.7 1016.7 0.0
29/10:00am 13.2 12.8 13.0 99 0.1 N 7 11 4 6 1016.9 1017.0 0.0
29/09:30am 12.1 12.7 11.9 99 0.1 CALM 0 0 0 0 1016.9 1017.0 0.0
29/09:00am 11.3 11.7 11.1 99 0.1 CALM 0 0 0 0 1016.9 1017.0 0.2
29/08:30am 10.2 10.3 10.0 99 0.1 CALM 0 0 0 0 1017.0 1017.1 0.2
29/08:00am 9.3 9.1 9.2 99 0.0 CALM 0 0 0 0 1016.9 1017.0 0.0
29/07:30am 9.1 8.9 9.0 99 0.0 CALM 0 0 0 0 1016.5 1016.5 0.0
29/07:00am 9.1 8.5 9.0 99 0.0 WNW 2 6 1 3 1016.3 1016.3 0.0
29/06:30am 9.4 8.5 9.1 98 0.1 WNW 4 9 2 5 1015.9 1015.9 0.0
29/06:00am 10.6 9.4 10.4 99 0.1 NW 7 9 4 5 1015.6 1015.6 0.0
29/05:30am 11.0 9.2 10.7 98 0.2 NW 11 15 6 8 1015.5 1015.5 0.0
29/05:00am 11.4 8.2 11.1 98 0.2 NW 19 22 10 12 1015.4 1015.4 0.0
29/04:30am 11.3 8.7 10.8 97 0.3 NW 15 20 8 11 1015.1 1015.1 0.0
29/04:00am 11.6 9.1 11.0 96 0.3 NW 15 20 8 11 1015.0 1015.0 0.0
29/03:30am 11.9 9.0 11.1 95 0.4 NW 17 22 9 12 1015.1 1015.1 0.0
29/03:00am 11.9 9.3 10.8 93 0.6 NW 15 20 8 11 1015.0 1015.0 0.0
29/02:30am 12.3 9.4 11.0 92 0.7 NW 17 24 9 13 1015.1 1015.1 0.0
29/02:00am 12.4 9.1 11.0 91 0.7 NNW 19 26 10 14 1015.3 1015.3 0.0
29/01:30am 11.3 8.9 9.9 91 0.7 NW 13 17 7 9 1015.5 1015.5 0.0
29/01:00am 11.5 9.3 9.4 87 1.1 NW 11 15 6 8 1015.4 1015.4 0.0
29/12:30am 12.9 10.7 10.8 87 1.1 NNW 13 20 7 11 1015.3 1015.3 0.0
29/12:00am 12.8 11.8 10.9 88 1.0 NNW 7 13 4 7 1015.5 1015.5 0.0
 
Date/Time
WST
Temp
°C
App
Temp
°C
Dew
Point
Rel
Hum
%
Delta-T
°C
Wind Press
QNH
hPa
Press
MSL
hPa
Rain
since 9 am
mm
Dir
 
Spd
km/h
Gust
km/h
Spd
kts
Gust
kts
28/11:30pm 12.0 11.7 10.2 89 0.9 N 2 7 1 4 1015.7 1015.7 0.0
28/11:00pm 12.2 12.0 10.3 88 1.0 N 2 9 1 5 1015.7 1015.7 0.0
28/10:30pm 12.2 11.6 10.3 88 1.0 NNW 4 9 2 5 1016.1 1016.1 0.0
28/10:00pm 11.9 12.0 10.0 88 1.0 CALM 0 0 0 0 1015.9 1015.9 0.0
28/09:30pm 11.9 11.9 9.8 87 1.1 CALM 0 0 0 0 1016.1 1016.1 0.0
28/09:00pm 12.2 12.2 9.9 86 1.2 CALM 0 6 0 3 1015.9 1015.9 0.0
28/08:30pm 12.5 11.9 10.4 87 1.1 N 4 9 2 5 1015.9 1015.9 0.0
28/08:00pm 12.0 12.0 9.9 87 1.1 CALM 0 0 0 0 1015.9 1015.9 0.0
28/07:30pm 11.6 11.5 9.5 87 1.1 CALM 0 0 0 0 1015.9 1015.9 0.0
28/07:00pm 11.2 10.9 8.6 84 1.3 CALM 0 0 0 0 1015.5 1015.5 0.0
28/06:30pm 12.0 11.5 9.2 83 1.4 N 2 11 1 6 1015.1 1015.1 0.0
28/06:00pm 11.5 11.2 8.5 82 1.5 CALM 0 0 0 0 1014.8 1014.8 0.0
28/05:30pm 12.7 12.4 8.8 77 2.0 CALM 0 0 0 0 1014.7 1014.7 0.0
28/05:00pm 14.3 13.1 9.5 73 2.5 NW 6 9 3 5 1014.6 1014.6 0.0
28/04:30pm 15.2 15.3 10.2 72 2.6 CALM 0 0 0 0 1014.6 1014.6 0.0
28/04:00pm 15.3 15.3 9.7 69 2.9 CALM 0 0 0 0 1014.6 1014.6 0.0
28/03:30pm 15.1 13.6 9.2 68 3.0 N 7 11 4 6 1014.6 1014.6 0.0

Other Formats:

Comma delimited format used in spreadsheet applications
http://www.bom.gov.au/fwo/IDW60801/IDW60801.95647.axf

JavaScript Object Notation format (JSON) in row-major order
http://www.bom.gov.au/fwo/IDW60801/IDW60801.95647.json